Terminal Aerodrome Forecast
Issued by NWS Louisville, KY

Home | Current Version | Previous Version | Text Only | Print | Product List | Glossary On
Versions: 1 2 3 4 5 6 7 8 9 10 11 12 13 14 15
000
FTUS43 KLMK 231700
TAFBWG
TAF
KBWG 231727Z 2318/2418 06004KT P6SM SCT250
     FM240800 00000KT 4SM BR BKN150
     FM241300 32003KT P6SM SCT150=

USA.gov is the U.S. government's official web portal to all federal, state and local government web resources and services.